Time;durP1;ratioP1;P1;durP2;ratioP2;P2;SDS_P1;SDS_P2;PMS_P1;PMS_P2;Temp;Humidity;BMP_temperature;BMP_pressure;BME280_temperature;BME280_humidity;BME280_pressure;Samples;Min_cycle;Max_cycle;Signal;HPM_P1;HPM_P2
2023/09/23 00:01:44;;;;;;;21.63;15.27;;;;;;;;;;5089933;28;20035;-59
2023/09/23 00:04:10;;;;;;;21.00;14.93;;;;;;;;;;5091163;28;20474;-55
2023/09/23 00:06:37;;;;;;;22.30;15.48;;;;;;;;;;5089866;28;20031;-58
2023/09/23 00:09:04;;;;;;;22.70;16.17;;;;;;;;;;5091196;28;20035;-58
2023/09/23 00:11:30;;;;;;;20.20;14.38;;;;;;;;;;5090933;28;20035;-58
2023/09/23 00:13:56;;;;;;;19.95;15.30;;;;;;;;;;5090912;28;20040;-58
2023/09/23 00:16:22;;;;;;;20.42;14.77;;;;;;;;;;5089435;28;20032;-59
2023/09/23 00:18:48;;;;;;;24.60;15.48;;;;;;;;;;5090907;28;20020;-58
2023/09/23 00:21:15;;;;;;;21.33;14.52;;;;;;;;;;5090719;28;20016;-58
2023/09/23 00:23:41;;;;;;;20.50;13.00;;;;;;;;;;5090461;28;20478;-59
2023/09/23 00:26:08;;;;;;;20.15;12.57;;;;;;;;;;5090764;28;20047;-58
2023/09/23 00:28:34;;;;;;;19.52;13.68;;;;;;;;;;5090602;28;20387;-56
2023/09/23 00:31:11;;;;;;;18.60;13.35;;;;;;;;;;5090570;28;20103;-57
2023/09/23 00:33:37;;;;;;;19.92;13.13;;;;;;;;;;5090611;28;20020;-58
2023/09/23 00:36:05;;;;;;;19.35;13.30;;;;;;;;;;5090574;28;20016;-60
2023/09/23 00:38:32;;;;;;;18.83;11.75;;;;;;;;;;5090352;28;20060;-57
2023/09/23 00:40:58;;;;;;;20.10;13.63;;;;;;;;;;5090149;28;20070;-58
2023/09/23 00:43:24;;;;;;;21.48;13.73;;;;;;;;;;5088943;28;20028;-59
2023/09/23 00:45:51;;;;;;;19.83;13.65;;;;;;;;;;5090404;28;20017;-57
2023/09/23 00:48:23;;;;;;;19.98;13.50;;;;;;;;;;5090350;28;20047;-57
2023/09/23 00:50:50;;;;;;;20.05;13.82;;;;;;;;;;5082428;28;20028;-59
2023/09/23 00:53:17;;;;;;;20.05;13.63;;;;;;;;;;5090092;28;20074;-56
2023/09/23 00:55:51;;;;;;;22.15;14.30;;;;;;;;;;5090088;28;20084;-58
2023/09/23 00:58:21;;;;;;;22.05;15.07;;;;;;;;;;5090197;28;20504;-58
2023/09/23 01:00:48;;;;;;;23.13;16.13;;;;;;;;;;5090160;28;20020;-57
2023/09/23 01:03:15;;;;;;;22.80;15.73;;;;;;;;;;5088901;28;20049;-59
2023/09/23 01:05:41;;;;;;;24.38;15.25;;;;;;;;;;5090300;28;20024;-53
2023/09/23 01:08:11;;;;;;;23.52;15.48;;;;;;;;;;5090349;28;20024;-58
2023/09/23 01:10:37;;;;;;;24.50;17.08;;;;;;;;;;5089871;28;20016;-59
2023/09/23 01:13:06;;;;;;;23.65;15.63;;;;;;;;;;5089507;28;20034;-57
2023/09/23 01:15:32;;;;;;;23.88;15.75;;;;;;;;;;5089971;28;20028;-58
2023/09/23 01:17:58;;;;;;;24.15;16.45;;;;;;;;;;5090144;28;20061;-58
2023/09/23 01:20:25;;;;;;;24.70;16.58;;;;;;;;;;5089761;28;20024;-59
2023/09/23 01:22:57;;;;;;;22.35;13.82;;;;;;;;;;5089910;28;20019;-59
2023/09/23 01:25:25;;;;;;;24.98;17.00;;;;;;;;;;5088542;28;20436;-57
2023/09/23 01:27:51;;;;;;;25.80;16.35;;;;;;;;;;5089873;28;20016;-55
2023/09/23 01:30:20;;;;;;;23.25;14.75;;;;;;;;;;5088558;28;20378;-57
2023/09/23 01:32:48;;;;;;;24.02;14.95;;;;;;;;;;5087825;28;20020;-58
2023/09/23 01:35:20;;;;;;;23.45;13.93;;;;;;;;;;5087133;28;20004;-58
2023/09/23 01:37:46;;;;;;;24.05;14.38;;;;;;;;;;5089903;28;20017;-58
2023/09/23 01:40:19;;;;;;;29.80;15.38;;;;;;;;;;5089618;28;20028;-56
2023/09/23 01:42:46;;;;;;;26.75;15.75;;;;;;;;;;5089546;28;20020;-56
2023/09/23 01:45:13;;;;;;;24.33;15.73;;;;;;;;;;5089894;28;20069;-56
2023/09/23 01:47:39;;;;;;;26.10;14.50;;;;;;;;;;5088398;28;20473;-55
2023/09/23 01:50:06;;;;;;;24.33;14.35;;;;;;;;;;5089476;28;20397;-57
2023/09/23 01:52:32;;;;;;;24.08;14.30;;;;;;;;;;5088966;28;20020;-59
2023/09/23 01:54:58;;;;;;;25.52;14.77;;;;;;;;;;5088950;28;20393;-60
2023/09/23 01:57:24;;;;;;;25.05;14.70;;;;;;;;;;5089569;28;20207;-58
2023/09/23 01:59:50;;;;;;;25.83;14.05;;;;;;;;;;5089544;28;20505;-60
2023/09/23 02:02:17;;;;;;;24.73;13.68;;;;;;;;;;5088525;28;20024;-56
2023/09/23 02:04:43;;;;;;;24.95;14.18;;;;;;;;;;5089399;28;20095;-57
2023/09/23 02:07:10;;;;;;;26.08;14.85;;;;;;;;;;5089707;28;20088;-59
2023/09/23 02:09:40;;;;;;;26.38;13.13;;;;;;;;;;5089499;28;20103;-60
2023/09/23 02:12:06;;;;;;;27.13;14.70;;;;;;;;;;5089526;28;20060;-55
2023/09/23 02:14:32;;;;;;;28.48;14.60;;;;;;;;;;5089575;28;20039;-56
2023/09/23 02:16:58;;;;;;;23.50;12.50;;;;;;;;;;5089925;28;20024;-57
2023/09/23 02:19:25;;;;;;;26.80;16.05;;;;;;;;;;5089665;28;20095;-58
2023/09/23 02:21:51;;;;;;;22.92;11.75;;;;;;;;;;5089456;28;20028;-57
2023/09/23 02:24:18;;;;;;;24.23;13.30;;;;;;;;;;5088280;28;20436;-58
2023/09/23 02:26:45;;;;;;;27.55;15.35;;;;;;;;;;5091244;28;20063;-58
2023/09/23 02:29:14;;;;;;;27.00;15.32;;;;;;;;;;5093303;28;20020;-59
2023/09/23 02:31:40;;;;;;;;;;;;;;;;;;5092246;28;20054;-57
2023/09/23 02:34:10;;;;;;;26.42;14.25;;;;;;;;;;5092804;28;19904;-56
2023/09/23 02:36:37;;;;;;;25.20;14.02;;;;;;;;;;5091694;28;20103;-58
2023/09/23 02:39:04;;;;;;;27.85;14.25;;;;;;;;;;5092954;28;20504;-61
2023/09/23 02:41:32;;;;;;;28.40;14.90;;;;;;;;;;5091476;28;20383;-57
2023/09/23 02:43:58;;;;;;;25.15;13.68;;;;;;;;;;5091687;28;20111;-59
2023/09/23 02:46:24;;;;;;;23.38;12.10;;;;;;;;;;5093220;28;20109;-57
2023/09/23 02:48:51;;;;;;;24.48;11.95;;;;;;;;;;5092839;28;20426;-57
2023/09/23 02:51:17;;;;;;;24.05;11.70;;;;;;;;;;5092837;28;20024;-58
2023/09/23 02:53:44;;;;;;;24.27;12.95;;;;;;;;;;5091536;28;20100;-59
2023/09/23 02:56:10;;;;;;;24.67;13.23;;;;;;;;;;5092678;28;20416;-58
2023/09/23 02:58:38;;;;;;;22.83;11.10;;;;;;;;;;5092372;28;20103;-57
2023/09/23 03:01:05;;;;;;;26.88;12.68;;;;;;;;;;5092219;28;20028;-59
2023/09/23 03:03:33;;;;;;;25.70;12.43;;;;;;;;;;5092478;28;20012;-58
2023/09/23 03:06:02;;;;;;;25.23;12.45;;;;;;;;;;5092522;28;20024;-58
2023/09/23 03:08:30;;;;;;;23.58;11.60;;;;;;;;;;5092369;28;20035;-57
2023/09/23 03:11:02;;;;;;;22.63;12.10;;;;;;;;;;5090963;28;20044;-57
2023/09/23 03:13:29;;;;;;;24.63;11.85;;;;;;;;;;5092048;28;20028;-56
2023/09/23 03:16:07;;;;;;;23.00;12.05;;;;;;;;;;5092063;28;20431;-54
2023/09/23 03:18:33;;;;;;;24.00;11.60;;;;;;;;;;5090875;28;20110;-56
2023/09/23 03:21:09;;;;;;;22.92;11.38;;;;;;;;;;5090695;28;20020;-59
2023/09/23 03:23:37;;;;;;;24.23;11.02;;;;;;;;;;5092095;28;20024;-56
2023/09/23 03:26:04;;;;;;;22.80;11.80;;;;;;;;;;5092030;28;20023;-58
2023/09/23 03:28:30;;;;;;;21.95;10.95;;;;;;;;;;5092142;28;20028;-59
2023/09/23 03:31:00;;;;;;;23.30;11.13;;;;;;;;;;5091738;28;20631;-59
2023/09/23 03:33:26;;;;;;;24.52;11.63;;;;;;;;;;5091436;28;20438;-56
2023/09/23 03:35:53;;;;;;;23.55;11.52;;;;;;;;;;5090159;28;20085;-53
2023/09/23 03:38:19;;;;;;;24.70;12.75;;;;;;;;;;5091734;28;20021;-58
2023/09/23 03:40:56;;;;;;;22.90;10.20;;;;;;;;;;5091585;28;20031;-59
2023/09/23 03:43:24;;;;;;;25.25;11.60;;;;;;;;;;5091538;28;20073;-58
2023/09/23 03:45:51;;;;;;;24.17;11.67;;;;;;;;;;5091660;28;20027;-58
2023/09/23 03:48:17;;;;;;;26.45;13.18;;;;;;;;;;5090514;28;20394;-57
2023/09/23 03:50:42;;;;;;;24.60;11.38;;;;;;;;;;5091327;28;20034;-58
2023/09/23 03:53:11;;;;;;;25.42;11.65;;;;;;;;;;5091521;28;20020;-58
2023/09/23 03:55:38;;;;;;;24.85;12.85;;;;;;;;;;5091234;28;20024;-58
2023/09/23 03:58:04;;;;;;;24.75;12.55;;;;;;;;;;5091320;28;20055;-55
2023/09/23 04:00:33;;;;;;;31.33;12.60;;;;;;;;;;5089708;28;20020;-50
2023/09/23 04:02:59;;;;;;;26.98;13.00;;;;;;;;;;5091232;28;20065;-57
2023/09/23 04:05:26;;;;;;;26.20;13.77;;;;;;;;;;5091242;28;20024;-57
2023/09/23 04:07:53;;;;;;;26.33;13.20;;;;;;;;;;5091395;28;20020;-54
2023/09/23 04:10:19;;;;;;;27.92;13.95;;;;;;;;;;5091380;28;20114;-57
2023/09/23 04:12:45;;;;;;;27.67;14.43;;;;;;;;;;5091268;28;20053;-57
2023/09/23 04:15:12;;;;;;;25.95;14.48;;;;;;;;;;5090254;28;20398;-57
2023/09/23 04:17:38;;;;;;;26.92;14.82;;;;;;;;;;5091139;28;20043;-56
2023/09/23 04:20:09;;;;;;;29.23;15.57;;;;;;;;;;5090981;28;20095;-60
2023/09/23 04:22:36;;;;;;;26.85;15.38;;;;;;;;;;5089323;28;20759;-58
2023/09/23 04:25:03;;;;;;;27.98;16.63;;;;;;;;;;5090873;28;20031;-58
2023/09/23 04:27:29;;;;;;;28.13;15.68;;;;;;;;;;5090821;28;20024;-58
2023/09/23 04:29:56;;;;;;;29.35;17.00;;;;;;;;;;5090594;28;20113;-57
2023/09/23 04:32:21;;;;;;;29.65;16.00;;;;;;;;;;5090771;28;20028;-58
2023/09/23 04:34:47;;;;;;;31.65;17.17;;;;;;;;;;5090669;28;20035;-58
2023/09/23 04:37:13;;;;;;;31.38;17.50;;;;;;;;;;5090849;28;20034;-58
2023/09/23 04:39:39;;;;;;;32.78;18.73;;;;;;;;;;5090655;28;20553;-58
2023/09/23 04:42:05;;;;;;;32.42;18.50;;;;;;;;;;5090691;28;20115;-58
2023/09/23 04:44:32;;;;;;;32.95;19.00;;;;;;;;;;5089105;28;20020;-59
2023/09/23 04:46:58;;;;;;;35.20;20.85;;;;;;;;;;5090795;28;20020;-58
2023/09/23 04:49:24;;;;;;;35.85;21.52;;;;;;;;;;5089987;28;20032;-57
2023/09/23 04:51:50;;;;;;;37.38;20.67;;;;;;;;;;5089267;28;20020;-56
2023/09/23 04:54:16;;;;;;;36.70;19.55;;;;;;;;;;5089204;28;20098;-58
2023/09/23 04:56:42;;;;;;;35.53;21.08;;;;;;;;;;5090294;28;20020;-56
2023/09/23 04:59:08;;;;;;;36.53;21.88;;;;;;;;;;5090370;28;20024;-57
2023/09/23 05:01:34;;;;;;;34.03;20.85;;;;;;;;;;5090149;28;20056;-55
2023/09/23 05:04:04;;;;;;;39.47;20.48;;;;;;;;;;5089013;28;20486;-58
2023/09/23 05:06:30;;;;;;;37.38;20.63;;;;;;;;;;5090069;28;20069;-58
2023/09/23 05:08:58;;;;;;;35.70;20.85;;;;;;;;;;5089076;28;20020;-57
2023/09/23 05:11:24;;;;;;;36.22;21.90;;;;;;;;;;5088819;28;20085;-58
2023/09/23 05:13:50;;;;;;;37.40;22.85;;;;;;;;;;5090487;28;20034;-58
2023/09/23 05:16:17;;;;;;;33.20;18.75;;;;;;;;;;5090093;28;20389;-56
2023/09/23 05:18:42;;;;;;;41.10;24.30;;;;;;;;;;5089910;28;20023;-57
2023/09/23 05:21:09;;;;;;;37.95;23.50;;;;;;;;;;5089687;28;20035;-58
2023/09/23 05:23:35;;;;;;;37.00;22.90;;;;;;;;;;5090096;28;20047;-58
2023/09/23 05:26:04;;;;;;;41.33;23.58;;;;;;;;;;5088665;28;20027;-59
2023/09/23 05:28:30;;;;;;;37.90;22.80;;;;;;;;;;5089809;28;20049;-58
2023/09/23 05:30:58;;;;;;;40.75;24.25;;;;;;;;;;5089749;28;20020;-60
2023/09/23 05:33:24;;;;;;;38.80;22.83;;;;;;;;;;5089722;28;20020;-58
2023/09/23 05:35:51;;;;;;;40.08;22.75;;;;;;;;;;5087770;28;20028;-58
2023/09/23 05:38:19;;;;;;;38.45;23.08;;;;;;;;;;5073616;28;20121;-59
2023/09/23 05:40:46;;;;;;;40.35;26.25;;;;;;;;;;5087886;28;20020;-60
2023/09/23 05:43:12;;;;;;;39.03;25.75;;;;;;;;;;5089793;28;20101;-58
2023/09/23 05:45:38;;;;;;;37.85;24.90;;;;;;;;;;5089535;28;20032;-60
2023/09/23 05:48:05;;;;;;;42.20;26.00;;;;;;;;;;5089896;28;20031;-58
2023/09/23 05:50:31;;;;;;;33.60;20.25;;;;;;;;;;5089391;28;20031;-59
2023/09/23 05:52:57;;;;;;;37.47;24.95;;;;;;;;;;5089497;28;20070;-58
2023/09/23 05:55:23;;;;;;;34.95;21.83;;;;;;;;;;5088128;28;20036;-58
2023/09/23 05:57:49;;;;;;;36.35;23.55;;;;;;;;;;5089635;28;20095;-60
2023/09/23 06:00:17;;;;;;;37.38;23.85;;;;;;;;;;5090311;28;20020;-59
2023/09/23 06:02:45;;;;;;;38.67;22.45;;;;;;;;;;5093421;28;20028;-59
2023/09/23 06:05:11;;;;;;;37.15;23.92;;;;;;;;;;5093493;28;20016;-58
2023/09/23 06:07:37;;;;;;;35.05;22.17;;;;;;;;;;5093705;28;20028;-60
2023/09/23 06:10:04;;;;;;;35.00;21.98;;;;;;;;;;5093260;28;20115;-60
2023/09/23 06:12:30;;;;;;;29.67;17.17;;;;;;;;;;5093162;28;20016;-60
2023/09/23 06:15:05;;;;;;;38.00;22.40;;;;;;;;;;5093445;28;20509;-58
2023/09/23 06:17:34;;;;;;;32.20;20.30;;;;;;;;;;5093300;28;20016;-58
2023/09/23 06:20:00;;;;;;;30.50;19.45;;;;;;;;;;5093162;28;20027;-58
2023/09/23 06:22:27;;;;;;;33.00;19.88;;;;;;;;;;5093046;28;20031;-54
2023/09/23 06:24:54;;;;;;;31.52;19.63;;;;;;;;;;5093055;28;20419;-59
2023/09/23 06:27:20;;;;;;;30.25;19.05;;;;;;;;;;5092980;28;20052;-58
2023/09/23 06:29:46;;;;;;;30.40;18.92;;;;;;;;;;5092670;28;20558;-56
2023/09/23 06:32:12;;;;;;;30.40;18.58;;;;;;;;;;5093039;28;20489;-59
2023/09/23 06:34:39;;;;;;;27.70;18.25;;;;;;;;;;5092476;28;20429;-57
2023/09/23 06:37:05;;;;;;;29.23;18.83;;;;;;;;;;5092838;28;20024;-57
2023/09/23 06:39:31;;;;;;;26.75;18.02;;;;;;;;;;5092724;28;20024;-56
2023/09/23 06:41:57;;;;;;;26.40;15.63;;;;;;;;;;5092541;28;20381;-53
2023/09/23 06:44:23;;;;;;;27.58;14.60;;;;;;;;;;5092839;28;20024;-57
2023/09/23 06:46:50;;;;;;;22.30;13.38;;;;;;;;;;5092705;28;20022;-59
2023/09/23 06:49:17;;;;;;;27.03;15.63;;;;;;;;;;5092655;28;20107;-56
2023/09/23 06:51:43;;;;;;;24.60;14.07;;;;;;;;;;5092375;28;20566;-58
2023/09/23 06:54:09;;;;;;;25.63;15.85;;;;;;;;;;5092408;28;20028;-57
2023/09/23 06:56:36;;;;;;;24.95;15.80;;;;;;;;;;5092370;28;20512;-59
2023/09/23 06:59:02;;;;;;;26.50;14.68;;;;;;;;;;5092346;28;20481;-59
2023/09/23 07:01:28;;;;;;;25.02;13.80;;;;;;;;;;5091899;28;20028;-59
2023/09/23 07:03:54;;;;;;;24.30;14.60;;;;;;;;;;5090930;28;20039;-58
2023/09/23 07:06:20;;;;;;;24.90;14.82;;;;;;;;;;5092323;28;20024;-60
2023/09/23 07:08:46;;;;;;;26.50;14.70;;;;;;;;;;5092574;28;20035;-59
2023/09/23 07:11:15;;;;;;;23.25;15.18;;;;;;;;;;5091217;28;20028;-56
2023/09/23 07:13:42;;;;;;;23.88;14.10;;;;;;;;;;5091775;28;20089;-55
2023/09/23 07:16:14;;;;;;;24.92;14.30;;;;;;;;;;5091865;28;20048;-54
2023/09/23 07:18:41;;;;;;;22.70;13.95;;;;;;;;;;5091789;28;20473;-54
2023/09/23 07:21:07;;;;;;;21.80;12.05;;;;;;;;;;5091787;28;20024;-52
2023/09/23 07:23:33;;;;;;;24.55;13.85;;;;;;;;;;5091489;28;20028;-57
2023/09/23 07:26:00;;;;;;;27.65;15.60;;;;;;;;;;5091818;28;20492;-56
2023/09/23 07:28:26;;;;;;;26.33;16.53;;;;;;;;;;5091652;28;20024;-58
2023/09/23 07:30:52;;;;;;;26.50;14.82;;;;;;;;;;5091510;28;20113;-58
2023/09/23 07:33:18;;;;;;;25.65;15.55;;;;;;;;;;5091620;28;20028;-55
2023/09/23 07:35:44;;;;;;;27.77;15.43;;;;;;;;;;5091466;28;20046;-56
2023/09/23 07:38:10;;;;;;;24.85;14.40;;;;;;;;;;5091599;28;20115;-53
2023/09/23 07:40:39;;;;;;;24.52;15.82;;;;;;;;;;5091246;28;20012;-54
2023/09/23 07:43:05;;;;;;;25.10;16.85;;;;;;;;;;5091283;28;20021;-54
2023/09/23 07:45:31;;;;;;;25.60;16.45;;;;;;;;;;5091636;28;20028;-58
2023/09/23 07:47:57;;;;;;;24.45;14.95;;;;;;;;;;5091353;28;20091;-56
2023/09/23 07:50:23;;;;;;;25.45;15.82;;;;;;;;;;5091345;28;20028;-57
2023/09/23 07:52:49;;;;;;;35.08;16.77;;;;;;;;;;5085681;28;20020;-53
2023/09/23 07:55:15;;;;;;;28.95;17.08;;;;;;;;;;5083023;28;20151;-56
2023/09/23 07:57:41;;;;;;;30.58;17.90;;;;;;;;;;5085157;28;20020;-55
2023/09/23 08:00:08;;;;;;;29.60;19.40;;;;;;;;;;5082080;28;20023;-53
2023/09/23 08:02:35;;;;;;;28.25;17.70;;;;;;;;;;5085423;28;20078;-55
2023/09/23 08:05:03;;;;;;;29.65;18.20;;;;;;;;;;5091090;28;20016;-57
2023/09/23 08:07:29;;;;;;;32.90;19.75;;;;;;;;;;5090943;28;20449;-57
2023/09/23 08:09:55;;;;;;;30.75;19.98;;;;;;;;;;5085443;28;20182;-59
2023/09/23 08:12:21;;;;;;;32.17;19.77;;;;;;;;;;5083961;28;20165;-57
2023/09/23 08:14:47;;;;;;;32.03;21.92;;;;;;;;;;5083208;28;20082;-52
2023/09/23 08:17:14;;;;;;;32.10;21.85;;;;;;;;;;5080635;28;20052;-56
2023/09/23 08:19:41;;;;;;;29.33;19.27;;;;;;;;;;5085240;28;20067;-55
2023/09/23 08:22:07;;;;;;;30.10;19.80;;;;;;;;;;5081360;28;20121;-55
2023/09/23 08:24:33;;;;;;;35.08;20.52;;;;;;;;;;5082621;28;20032;-55
2023/09/23 08:26:59;;;;;;;29.65;19.10;;;;;;;;;;5084070;28;20073;-57
2023/09/23 08:29:25;;;;;;;33.75;20.98;;;;;;;;;;5089895;28;20485;-56
2023/09/23 08:31:51;;;;;;;30.70;19.73;;;;;;;;;;5085325;28;20028;-57
2023/09/23 08:34:17;;;;;;;29.75;20.83;;;;;;;;;;5085101;28;20073;-55
2023/09/23 08:36:43;;;;;;;31.13;20.30;;;;;;;;;;5088193;28;20066;-54
2023/09/23 08:39:09;;;;;;;33.50;20.50;;;;;;;;;;5085500;28;20064;-55
2023/09/23 08:41:36;;;;;;;30.38;19.90;;;;;;;;;;5089845;28;20030;-52
2023/09/23 08:44:05;;;;;;;28.13;19.17;;;;;;;;;;5090155;28;20016;-56
2023/09/23 08:46:32;;;;;;;29.80;20.88;;;;;;;;;;5090124;28;20020;-58
2023/09/23 08:48:59;;;;;;;26.20;18.05;;;;;;;;;;5090241;28;20374;-55
2023/09/23 08:51:27;;;;;;;28.17;19.60;;;;;;;;;;5089519;28;20024;-57
2023/09/23 08:53:54;;;;;;;26.10;19.52;;;;;;;;;;5090100;28;20516;-54
2023/09/23 08:56:20;;;;;;;30.42;20.83;;;;;;;;;;5090066;28;20476;-59
2023/09/23 08:58:49;;;;;;;28.17;18.90;;;;;;;;;;5090216;28;20043;-55
2023/09/23 09:01:16;;;;;;;27.45;17.48;;;;;;;;;;5084086;28;20104;-55
2023/09/23 09:03:42;;;;;;;27.13;17.90;;;;;;;;;;5069819;28;20032;-56
2023/09/23 09:06:29;;;;;;;25.88;16.85;;;;;;;;;;5069817;28;20090;-64
2023/09/23 09:08:55;;;;;;;24.13;15.63;;;;;;;;;;5080768;28;20032;-55
2023/09/23 09:11:24;;;;;;;23.13;15.10;;;;;;;;;;5072915;28;20024;-57
2023/09/23 09:13:50;;;;;;;24.02;13.70;;;;;;;;;;5068559;28;20414;-52
2023/09/23 09:16:18;;;;;;;21.35;13.57;;;;;;;;;;5074851;28;20032;-54
2023/09/23 09:18:44;;;;;;;20.60;12.87;;;;;;;;;;5070018;28;20024;-54
2023/09/23 09:21:10;;;;;;;18.60;12.40;;;;;;;;;;5079239;28;20078;-57
2023/09/23 09:23:38;;;;;;;21.60;12.68;;;;;;;;;;5078693;28;20047;-53
2023/09/23 09:26:04;;;;;;;23.47;14.73;;;;;;;;;;5080276;28;20094;-56
2023/09/23 09:28:30;;;;;;;24.90;15.20;;;;;;;;;;5069537;28;20029;-54
2023/09/23 09:30:57;;;;;;;28.10;16.48;;;;;;;;;;5068029;28;20060;-52
2023/09/23 09:33:27;;;;;;;28.00;17.60;;;;;;;;;;5069637;28;20027;-62
2023/09/23 09:35:57;;;;;;;26.05;18.20;;;;;;;;;;5074032;28;20452;-56
2023/09/23 09:38:25;;;;;;;24.00;17.08;;;;;;;;;;5090682;28;20059;-56
2023/09/23 09:40:52;;;;;;;27.08;18.20;;;;;;;;;;5093422;28;20027;-53
2023/09/23 09:43:20;;;;;;;26.38;18.00;;;;;;;;;;5093652;28;20032;-58
2023/09/23 09:45:48;;;;;;;24.52;16.38;;;;;;;;;;5083571;28;20099;-56
2023/09/23 09:48:14;;;;;;;24.80;16.88;;;;;;;;;;5070458;28;20119;-54
2023/09/23 09:50:41;;;;;;;26.00;17.80;;;;;;;;;;5070003;28;20466;-52
2023/09/23 09:53:08;;;;;;;25.02;16.65;;;;;;;;;;5069831;28;20059;-57
2023/09/23 09:55:34;;;;;;;32.70;16.73;;;;;;;;;;5069676;28;20072;-58
2023/09/23 09:58:01;;;;;;;25.27;16.42;;;;;;;;;;5070184;28;20024;-55
2023/09/23 10:00:28;;;;;;;24.38;16.45;;;;;;;;;;5069608;28;20028;-57
2023/09/23 10:02:58;;;;;;;21.80;15.20;;;;;;;;;;5070744;28;20121;-57
2023/09/23 10:05:31;;;;;;;22.73;15.40;;;;;;;;;;5072360;28;20146;-56
2023/09/23 10:07:57;;;;;;;25.20;15.70;;;;;;;;;;5072880;28;20505;-54
2023/09/23 10:10:33;;;;;;;24.75;15.45;;;;;;;;;;5073007;28;20081;-55
2023/09/23 10:13:09;;;;;;;25.05;13.95;;;;;;;;;;5072456;28;20028;-57
2023/09/23 10:15:40;;;;;;;22.60;14.27;;;;;;;;;;5072746;28;20020;-57
2023/09/23 10:18:13;;;;;;;23.45;15.43;;;;;;;;;;5072741;28;20111;-53
2023/09/23 10:20:41;;;;;;;20.20;12.68;;;;;;;;;;5072765;28;20483;-57
2023/09/23 10:23:08;;;;;;;25.77;12.57;;;;;;;;;;5072620;28;20037;-58
2023/09/23 10:25:42;;;;;;;19.58;11.52;;;;;;;;;;5072481;28;20021;-54
2023/09/23 10:28:18;;;;;;;20.83;11.88;;;;;;;;;;5072711;28;20095;-56
2023/09/23 10:30:44;;;;;;;20.48;11.85;;;;;;;;;;5072285;28;20043;-56
2023/09/23 10:33:12;;;;;;;19.88;12.95;;;;;;;;;;5071185;28;20021;-52
2023/09/23 10:35:38;;;;;;;27.80;12.00;;;;;;;;;;5070961;28;20020;-56
2023/09/23 10:38:05;;;;;;;19.45;12.18;;;;;;;;;;5087006;28;20032;-56
2023/09/23 10:40:31;;;;;;;20.33;12.35;;;;;;;;;;5092466;28;20266;-54
2023/09/23 10:43:03;;;;;;;20.55;10.60;;;;;;;;;;5092472;28;20016;-56
2023/09/23 10:45:29;;;;;;;18.05;10.82;;;;;;;;;;5091943;28;20107;-50
2023/09/23 10:47:56;;;;;;;19.02;10.57;;;;;;;;;;5090754;28;20051;-53
2023/09/23 10:50:21;;;;;;;16.58;10.35;;;;;;;;;;5092043;28;20024;-53
2023/09/23 10:52:47;;;;;;;18.52;10.63;;;;;;;;;;5081930;28;20086;-54
2023/09/23 10:55:14;;;;;;;19.38;9.95;;;;;;;;;;5078614;28;20028;-56
2023/09/23 10:57:40;;;;;;;17.80;10.73;;;;;;;;;;5082633;28;20071;-53
2023/09/23 11:00:21;;;;;;;23.83;11.23;;;;;;;;;;5082247;28;20027;-51
2023/09/23 11:02:54;;;;;;;19.02;10.65;;;;;;;;;;5082370;28;20060;-56
2023/09/23 11:05:22;;;;;;;17.65;10.60;;;;;;;;;;5088522;28;20024;-57
2023/09/23 11:07:48;;;;;;;17.45;10.85;;;;;;;;;;5082850;28;20067;-53
2023/09/23 11:10:14;;;;;;;17.35;10.38;;;;;;;;;;5084236;28;20440;-54
2023/09/23 11:12:46;;;;;;;17.85;10.60;;;;;;;;;;5090608;28;20115;-57
2023/09/23 11:15:13;;;;;;;22.60;10.88;;;;;;;;;;5092428;28;20574;-56
2023/09/23 11:17:40;;;;;;;18.90;9.85;;;;;;;;;;5090452;28;20397;-59
2023/09/23 11:20:09;;;;;;;19.02;10.43;;;;;;;;;;5091304;28;20056;-56
2023/09/23 11:22:37;;;;;;;16.30;9.85;;;;;;;;;;5091661;28;20023;-60
2023/09/23 11:25:07;;;;;;;16.75;9.55;;;;;;;;;;5091712;28;20017;-60
2023/09/23 11:27:34;;;;;;;18.90;10.93;;;;;;;;;;5091524;28;20020;-58
2023/09/23 11:30:00;;;;;;;19.48;9.98;;;;;;;;;;5091218;28;20032;-61
2023/09/23 11:32:27;;;;;;;15.27;9.05;;;;;;;;;;5089892;28;20039;-61
2023/09/23 11:34:53;;;;;;;16.05;9.60;;;;;;;;;;5091518;28;20023;-59
2023/09/23 11:37:23;;;;;;;18.55;9.52;;;;;;;;;;5091512;28;20054;-60
2023/09/23 11:39:49;;;;;;;16.27;9.27;;;;;;;;;;5090765;28;20104;-57
2023/09/23 11:42:15;;;;;;;18.60;9.70;;;;;;;;;;5091127;28;20478;-59
2023/09/23 11:44:41;;;;;;;16.05;8.85;;;;;;;;;;5091192;28;20142;-52
2023/09/23 11:47:07;;;;;;;16.23;8.43;;;;;;;;;;5090075;28;20501;-61
2023/09/23 11:49:33;;;;;;;15.63;9.25;;;;;;;;;;5091318;28;20062;-60
2023/09/23 11:51:59;;;;;;;16.15;9.07;;;;;;;;;;5091120;28;20517;-57
2023/09/23 11:54:25;;;;;;;17.65;9.40;;;;;;;;;;5090980;28;20016;-58
2023/09/23 11:56:51;;;;;;;22.25;10.05;;;;;;;;;;5091092;28;20028;-61
2023/09/23 11:59:20;;;;;;;16.98;9.40;;;;;;;;;;4735173;28;10000430;-64
2023/09/23 12:01:48;;;;;;;15.20;9.60;;;;;;;;;;5078529;28;20024;-63
2023/09/23 12:04:14;;;;;;;20.20;10.20;;;;;;;;;;5078541;28;20108;-63
2023/09/23 12:06:40;;;;;;;18.20;10.27;;;;;;;;;;5067610;28;20474;-63
2023/09/23 12:09:10;;;;;;;17.35;9.50;;;;;;;;;;5082029;28;20028;-60
2023/09/23 12:11:36;;;;;;;16.80;10.10;;;;;;;;;;5087577;28;20036;-62
2023/09/23 12:14:03;;;;;;;16.63;9.50;;;;;;;;;;5087694;28;20424;-61
2023/09/23 12:16:29;;;;;;;16.25;9.63;;;;;;;;;;5081335;28;20183;-57
2023/09/23 12:18:55;;;;;;;16.40;9.82;;;;;;;;;;5084805;28;20111;-58
2023/09/23 12:21:21;;;;;;;15.45;9.40;;;;;;;;;;5088055;28;20107;-60
2023/09/23 12:23:47;;;;;;;15.52;9.32;;;;;;;;;;5088406;28;20099;-61
2023/09/23 12:26:15;;;;;;;15.77;9.50;;;;;;;;;;5088016;28;20144;-58
2023/09/23 12:28:41;;;;;;;18.38;9.50;;;;;;;;;;5088687;28;20492;-60
2023/09/23 12:31:07;;;;;;;15.30;9.02;;;;;;;;;;5081290;28;20118;-55
2023/09/23 12:33:33;;;;;;;16.05;9.60;;;;;;;;;;5074737;28;20035;-58
2023/09/23 12:35:59;;;;;;;15.55;9.35;;;;;;;;;;5086560;28;20471;-62
2023/09/23 12:38:25;;;;;;;15.43;9.18;;;;;;;;;;5089814;28;20099;-59
2023/09/23 12:40:51;;;;;;;18.55;9.88;;;;;;;;;;5090035;28;20024;-62
2023/09/23 12:43:17;;;;;;;16.13;9.65;;;;;;;;;;5088834;28;20379;-58
2023/09/23 12:45:44;;;;;;;17.00;10.27;;;;;;;;;;5090071;28;20056;-56
2023/09/23 12:48:10;;;;;;;16.42;9.60;;;;;;;;;;5088795;28;20031;-58
2023/09/23 12:50:36;;;;;;;17.33;9.65;;;;;;;;;;5089940;28;20024;-58
2023/09/23 12:53:02;;;;;;;15.90;9.60;;;;;;;;;;5089703;28;20030;-62
2023/09/23 12:55:28;;;;;;;18.52;10.63;;;;;;;;;;5090029;28;20057;-60
2023/09/23 12:57:55;;;;;;;17.45;9.68;;;;;;;;;;4736070;28;10000199;-61
2023/09/23 13:00:21;;;;;;;16.73;9.10;;;;;;;;;;5086619;28;20028;-58
2023/09/23 13:02:47;;;;;;;17.45;9.60;;;;;;;;;;5086973;28;20032;-58
2023/09/23 13:05:17;;;;;;;15.82;9.50;;;;;;;;;;5083470;28;20463;-62
2023/09/23 13:07:43;;;;;;;15.23;9.00;;;;;;;;;;5076549;28;20576;-62
2023/09/23 13:10:10;;;;;;;16.50;10.05;;;;;;;;;;5075701;28;20812;-56
2023/09/23 13:12:36;;;;;;;18.02;8.80;;;;;;;;;;5078168;28;20025;-61
2023/09/23 13:15:02;;;;;;;14.80;8.90;;;;;;;;;;5079605;28;20036;-57
2023/09/23 13:17:28;;;;;;;15.88;9.00;;;;;;;;;;5079930;28;20390;-55
2023/09/23 13:19:55;;;;;;;15.25;8.27;;;;;;;;;;5077250;28;20024;-57
2023/09/23 13:22:21;;;;;;;16.60;9.13;;;;;;;;;;5069248;28;20044;-62
2023/09/23 13:24:49;;;;;;;16.45;8.88;;;;;;;;;;5068462;28;20082;-53
2023/09/23 13:27:15;;;;;;;16.53;8.30;;;;;;;;;;5068158;28;20559;-56
2023/09/23 13:29:41;;;;;;;14.30;8.30;;;;;;;;;;5070131;28;20274;-53
2023/09/23 13:32:07;;;;;;;15.82;8.98;;;;;;;;;;5089013;28;20028;-55
2023/09/23 13:34:33;;;;;;;15.48;8.75;;;;;;;;;;5089742;28;20024;-57
2023/09/23 13:36:59;;;;;;;15.38;8.98;;;;;;;;;;5089116;28;20055;-55
2023/09/23 13:39:25;;;;;;;16.15;9.00;;;;;;;;;;5088573;28;20466;-61
2023/09/23 13:41:53;;;;;;;15.63;8.60;;;;;;;;;;5089300;28;20020;-60
2023/09/23 13:44:19;;;;;;;17.38;10.35;;;;;;;;;;5089870;28;20020;-61
2023/09/23 13:46:45;;;;;;;15.55;9.20;;;;;;;;;;5089919;28;20044;-60
2023/09/23 13:49:12;;;;;;;15.63;8.68;;;;;;;;;;5089700;28;20102;-59
2023/09/23 13:51:38;;;;;;;15.23;8.75;;;;;;;;;;4733313;28;10000167;-59
2023/09/23 13:54:04;;;;;;;14.73;9.43;;;;;;;;;;5085163;28;20059;-57
2023/09/23 13:56:30;;;;;;;19.35;9.68;;;;;;;;;;5085440;28;20062;-58
2023/09/23 13:58:56;;;;;;;17.67;10.05;;;;;;;;;;5085130;28;20047;-59
2023/09/23 14:01:22;;;;;;;15.38;9.65;;;;;;;;;;5086379;28;20020;-59
2023/09/23 14:03:49;;;;;;;15.85;9.15;;;;;;;;;;5077899;28;20052;-57
2023/09/23 14:06:14;;;;;;;22.95;9.18;;;;;;;;;;5066651;28;20036;-59
2023/09/23 14:08:40;;;;;;;17.05;9.13;;;;;;;;;;5079549;28;20039;-59
2023/09/23 14:11:06;;;;;;;16.23;9.50;;;;;;;;;;5086342;28;20450;-59
2023/09/23 14:13:33;;;;;;;19.58;9.60;;;;;;;;;;5086292;28;20036;-58
2023/09/23 14:15:59;;;;;;;17.73;10.25;;;;;;;;;;5086240;28;20101;-59
2023/09/23 14:18:25;;;;;;;16.13;9.70;;;;;;;;;;5084571;28;20505;-59